Time;durP1;ratioP1;P1;durP2;ratioP2;P2;SDS_P1;SDS_P2;PMS_P1;PMS_P2;Temp;Humidity;BMP_temperature;BMP_pressure;BME280_temperature;BME280_humidity;BME280_pressure;Samples;Min_cycle;Max_cycle;Signal;HPM_P1;HPM_P2
2024/02/24 05:30:35;;;;;;;0.20;0.20;;;2.70;86.00;;;;;;6153065;23;20367;-75
2024/02/24 05:33:01;;;;;;;0.20;0.20;;;2.60;86.30;;;;;;6156441;23;20005;-75
2024/02/24 05:35:26;;;;;;;0.20;0.20;;;2.70;86.40;;;;;;6160569;23;20026;-75
2024/02/24 05:37:52;;;;;;;0.10;0.10;;;2.70;86.50;;;;;;6133824;23;20006;-75
2024/02/24 05:40:17;;;;;;;0.20;0.20;;;2.70;86.40;;;;;;6160662;23;20342;-75
2024/02/24 05:42:43;;;;;;;0.20;0.20;;;2.80;86.20;;;;;;6160319;23;20120;-75
2024/02/24 05:45:10;;;;;;;0.20;0.20;;;2.80;86.10;;;;;;6160252;23;20350;-75
2024/02/24 05:47:35;;;;;;;0.20;0.20;;;2.90;85.90;;;;;;6160177;23;20013;-74
2024/02/24 05:50:01;;;;;;;0.10;0.10;;;2.90;85.80;;;;;;6160439;23;20088;-75
2024/02/24 05:52:26;;;;;;;0.10;0.10;;;2.90;85.70;;;;;;6160678;23;20021;-75
2024/02/24 05:54:52;;;;;;;0.10;0.10;;;2.90;85.60;;;;;;6160214;23;20582;-75
2024/02/24 05:57:18;;;;;;;0.10;0.10;;;2.90;85.60;;;;;;6160329;23;20005;-75
2024/02/24 05:59:44;;;;;;;0.10;0.10;;;3.00;85.50;;;;;;6160499;23;20342;-75
2024/02/24 06:02:10;;;;;;;0.20;0.20;;;2.90;85.50;;;;;;6159389;23;20001;-75
2024/02/24 06:04:38;;;;;;;0.10;0.10;;;2.90;85.40;;;;;;6160732;23;20009;-75
2024/02/24 06:07:04;;;;;;;0.10;0.10;;;3.00;85.50;;;;;;6160588;23;20005;-75
2024/02/24 06:09:29;;;;;;;0.20;0.20;;;2.90;85.50;;;;;;6160317;23;20005;-75
2024/02/24 06:11:55;;;;;;;0.20;0.20;;;2.90;85.50;;;;;;6135039;23;20339;-76
2024/02/24 06:14:20;;;;;;;0.10;0.10;;;2.90;85.70;;;;;;6160222;23;20006;-76
2024/02/24 06:16:46;;;;;;;0.20;0.20;;;2.90;85.80;;;;;;6160285;23;20012;-76
2024/02/24 06:19:12;;;;;;;0.10;0.10;;;2.90;85.90;;;;;;6160507;23;20009;-76
2024/02/24 06:21:37;;;;;;;0.10;0.10;;;2.90;86.00;;;;;;6161147;23;19998;-76
2024/02/24 06:24:03;;;;;;;0.20;0.20;;;2.90;85.90;;;;;;6133823;23;20092;-76
2024/02/24 06:26:29;;;;;;;0.10;0.10;;;2.80;86.10;;;;;;6160595;23;20077;-76
2024/02/24 06:28:55;;;;;;;0.17;0.17;;;2.80;86.20;;;;;;6160130;23;20076;-76
2024/02/24 06:31:21;;;;;;;0.20;0.20;;;2.80;86.30;;;;;;6160387;23;20013;-75
2024/02/24 06:33:47;;;;;;;0.20;0.20;;;2.70;86.50;;;;;;6159817;23;20009;-76
2024/02/24 06:36:12;;;;;;;0.10;0.10;;;2.70;86.60;;;;;;6134411;23;20006;-76
2024/02/24 06:38:38;;;;;;;0.10;0.10;;;2.70;86.70;;;;;;6160140;23;20002;-76
2024/02/24 06:41:03;;;;;;;0.20;0.20;;;2.70;86.70;;;;;;6160116;23;20036;-76
2024/02/24 06:43:29;;;;;;;0.20;0.20;;;2.70;86.60;;;;;;6159934;23;20056;-76
2024/02/24 06:45:55;;;;;;;0.20;0.20;;;2.70;86.70;;;;;;6160020;23;20389;-76
2024/02/24 06:48:20;;;;;;;0.10;0.10;;;2.70;86.60;;;;;;6160750;23;19997;-76
2024/02/24 06:50:46;;;;;;;0.10;0.10;;;2.70;86.60;;;;;;6160503;23;20012;-76
2024/02/24 06:53:12;;;;;;;0.10;0.10;;;2.70;86.70;;;;;;6159724;23;20008;-76
2024/02/24 06:55:38;;;;;;;0.10;0.10;;;2.70;86.60;;;;;;6160066;23;20007;-76
2024/02/24 06:58:03;;;;;;;0.20;0.20;;;2.80;86.50;;;;;;6160211;23;20461;-76
2024/02/24 07:00:29;;;;;;;0.20;0.20;;;2.80;86.40;;;;;;6160172;23;20064;-76
2024/02/24 07:02:55;;;;;;;0.20;0.20;;;2.80;86.40;;;;;;6159895;23;20009;-76
2024/02/24 07:05:21;;;;;;;0.20;0.20;;;2.80;86.40;;;;;;6159901;23;20004;-76
2024/02/24 07:07:46;;;;;;;0.20;0.20;;;2.80;86.30;;;;;;6160511;23;20028;-76
2024/02/24 07:10:12;;;;;;;0.20;0.20;;;2.80;86.60;;;;;;6160300;23;20005;-76
2024/02/24 07:12:38;;;;;;;0.20;0.20;;;2.90;86.50;;;;;;6159090;23;20002;-76
2024/02/24 07:15:03;;;;;;;0.10;0.10;;;2.90;86.40;;;;;;6160158;23;20010;-75
2024/02/24 07:17:29;;;;;;;0.20;0.20;;;3.00;86.40;;;;;;6160154;23;20342;-74
2024/02/24 07:19:55;;;;;;;0.20;0.20;;;3.00;86.30;;;;;;6159722;23;20006;-76
2024/02/24 07:22:21;;;;;;;0.20;0.20;;;3.10;86.20;;;;;;6159497;23;20338;-76
2024/02/24 07:24:46;;;;;;;0.20;0.20;;;3.20;86.10;;;;;;6160128;23;20072;-76
2024/02/24 07:27:12;;;;;;;0.20;0.20;;;3.30;86.10;;;;;;6133718;23;20508;-76
2024/02/24 07:29:38;;;;;;;0.20;0.20;;;3.60;85.80;;;;;;6134278;23;20064;-75
2024/02/24 07:32:04;;;;;;;0.20;0.20;;;3.80;85.30;;;;;;6159246;23;20017;-76
2024/02/24 07:34:30;;;;;;;0.10;0.10;;;4.00;85.00;;;;;;6133842;23;20005;-74
2024/02/24 07:36:55;;;;;;;0.20;0.20;;;4.00;84.70;;;;;;6159945;23;20013;-74
2024/02/24 07:39:21;;;;;;;0.10;0.10;;;4.20;84.60;;;;;;6131338;23;20056;-76
2024/02/24 07:41:47;;;;;;;0.20;0.20;;;4.20;84.40;;;;;;6159307;23;20001;-74
2024/02/24 07:44:12;;;;;;;0.20;0.20;;;4.30;84.30;;;;;;6159669;23;19998;-75
2024/02/24 07:46:38;;;;;;;0.10;0.10;;;4.40;84.20;;;;;;6160078;23;20002;-73
2024/02/24 07:49:04;;;;;;;0.10;0.10;;;4.50;84.00;;;;;;6158940;23;20045;-74
2024/02/24 07:51:30;;;;;;;0.20;0.20;;;4.60;83.90;;;;;;6133692;23;20006;-75
2024/02/24 07:53:56;;;;;;;0.20;0.20;;;4.60;83.90;;;;;;6159703;23;20057;-74
2024/02/24 07:56:25;;;;;;;0.20;0.20;;;4.70;83.70;;;;;;6159596;23;20008;-74
2024/02/24 07:58:51;;;;;;;0.20;0.20;;;5.10;83.70;;;;;;6159016;23;20326;-74
2024/02/24 08:01:17;;;;;;;0.10;0.10;;;5.10;83.10;;;;;;6159515;23;20031;-74
2024/02/24 08:03:43;;;;;;;0.10;0.10;;;5.10;83.20;;;;;;6159016;23;20001;-75
2024/02/24 08:06:09;;;;;;;0.20;0.20;;;5.00;83.20;;;;;;6159657;23;20009;-75
2024/02/24 08:08:36;;;;;;;0.20;0.20;;;5.00;83.40;;;;;;6159197;23;20006;-75
2024/02/24 08:11:03;;;;;;;0.10;0.10;;;5.00;83.40;;;;;;6159484;23;20032;-75
2024/02/24 08:13:28;;;;;;;0.10;0.10;;;5.00;83.50;;;;;;6159499;23;20040;-74
2024/02/24 08:15:54;;;;;;;0.17;0.17;;;4.90;83.50;;;;;;6159046;23;20005;-74
2024/02/24 08:18:20;;;;;;;0.10;0.10;;;5.00;83.80;;;;;;6133474;23;20327;-74
2024/02/24 08:20:46;;;;;;;0.20;0.20;;;4.90;83.80;;;;;;6133281;23;20014;-74
2024/02/24 08:23:12;;;;;;;0.20;0.20;;;5.10;83.90;;;;;;6158584;23;20009;-74
2024/02/24 08:25:37;;;;;;;0.20;0.20;;;5.10;83.60;;;;;;6159702;23;20005;-74
2024/02/24 08:28:03;;;;;;;0.20;0.20;;;5.20;83.60;;;;;;6159203;23;19998;-75
2024/02/24 08:30:29;;;;;;;0.20;0.20;;;5.40;83.40;;;;;;6158696;23;20009;-75
2024/02/24 08:32:54;;;;;;;0.10;0.10;;;5.60;83.20;;;;;;6159502;23;20009;-74
2024/02/24 08:35:20;;;;;;;0.20;0.20;;;5.70;83.00;;;;;;6159524;23;19998;-75
2024/02/24 08:37:45;;;;;;;0.20;0.20;;;5.70;82.80;;;;;;6158738;23;20017;-74
2024/02/24 08:40:12;;;;;;;0.17;0.17;;;5.80;82.80;;;;;;6159252;23;20505;-75
2024/02/24 08:42:38;;;;;;;0.13;0.13;;;5.90;82.60;;;;;;6159603;23;20024;-74
2024/02/24 08:45:05;;;;;;;0.17;0.17;;;5.80;82.50;;;;;;6158918;23;20012;-75
2024/02/24 08:47:31;;;;;;;0.17;0.17;;;5.80;82.60;;;;;;6159424;23;20527;-75
2024/02/24 08:49:56;;;;;;;0.15;0.15;;;5.70;82.90;;;;;;6133446;23;20744;-75
2024/02/24 08:52:23;;;;;;;0.10;0.10;;;5.60;83.30;;;;;;6156816;23;20005;-74
2024/02/24 08:54:48;;;;;;;0.10;0.10;;;5.50;83.50;;;;;;6132669;23;20015;-74
2024/02/24 08:57:14;;;;;;;0.10;0.10;;;5.50;83.50;;;;;;6159013;23;20041;-74
2024/02/24 08:59:40;;;;;;;0.10;0.10;;;5.50;83.70;;;;;;6158820;23;20005;-74
2024/02/24 09:02:06;;;;;;;0.10;0.10;;;5.60;83.80;;;;;;6159213;23;20009;-74
2024/02/24 09:04:32;;;;;;;0.10;0.10;;;5.60;83.80;;;;;;6159107;23;20053;-75
2024/02/24 09:06:57;;;;;;;0.20;0.20;;;5.60;83.90;;;;;;6132735;23;20037;-74
2024/02/24 09:09:23;;;;;;;0.20;0.20;;;5.60;83.90;;;;;;6159106;23;20009;-74
2024/02/24 09:11:49;;;;;;;0.20;0.20;;;5.70;84.00;;;;;;6159454;23;19998;-75
2024/02/24 09:14:15;;;;;;;0.20;0.20;;;5.70;84.10;;;;;;6159035;23;20037;-74
2024/02/24 09:16:41;;;;;;;0.10;0.10;;;5.70;84.10;;;;;;6132765;23;20002;-74
2024/02/24 09:19:06;;;;;;;0.10;0.10;;;5.70;84.20;;;;;;6132704;23;20010;-74
2024/02/24 09:21:32;;;;;;;0.20;0.20;;;5.80;84.50;;;;;;6159408;23;21149;-74
2024/02/24 09:23:57;;;;;;;0.20;0.20;;;6.00;84.30;;;;;;6133011;23;20041;-74
2024/02/24 09:26:24;;;;;;;0.30;0.30;;;6.20;84.30;;;;;;6158467;23;20004;-74
2024/02/24 09:28:49;;;;;;;0.20;0.20;;;6.40;83.50;;;;;;6133055;23;20029;-74
2024/02/24 09:31:15;;;;;;;0.20;0.20;;;6.70;83.10;;;;;;6158992;23;20356;-74
2024/02/24 09:33:41;;;;;;;0.20;0.20;;;6.70;82.80;;;;;;6132280;23;20006;-74
2024/02/24 09:36:07;;;;;;;0.10;0.10;;;6.80;82.50;;;;;;6134730;23;20349;-74
2024/02/24 09:38:32;;;;;;;0.10;0.10;;;6.80;82.60;;;;;;6161167;23;20001;-74
2024/02/24 09:40:58;;;;;;;0.20;0.20;;;6.90;82.60;;;;;;6160636;23;20006;-74
2024/02/24 09:43:25;;;;;;;0.20;0.20;;;6.90;82.40;;;;;;6160519;23;20032;-75
2024/02/24 09:45:51;;;;;;;0.30;0.30;;;7.10;82.50;;;;;;6160871;23;20002;-74
2024/02/24 09:48:18;;;;;;;0.30;0.30;;;7.70;81.30;;;;;;6160493;23;20009;-74
2024/02/24 09:50:43;;;;;;;0.40;0.40;;;8.00;80.80;;;;;;6160975;23;20001;-74
2024/02/24 09:53:09;;;;;;;0.30;0.30;;;8.10;80.40;;;;;;6134888;23;20012;-74
2024/02/24 09:55:36;;;;;;;1.50;1.40;;;8.50;79.80;;;;;;6160264;23;20002;-75
2024/02/24 09:58:03;;;;;;;1.30;1.20;;;9.30;78.20;;;;;;6160274;23;20008;-75
2024/02/24 10:00:29;;;;;;;0.65;0.65;;;10.30;76.40;;;;;;6134579;23;20037;-76
2024/02/24 10:02:54;;;;;;;0.80;0.80;;;10.80;74.50;;;;;;6160627;23;20001;-75
2024/02/24 10:05:20;;;;;;;0.15;0.15;;;11.20;73.50;;;;;;6160431;23;20005;-74
2024/02/24 10:07:46;;;;;;;0.10;0.10;;;10.80;72.20;;;;;;6160757;23;20006;-74
2024/02/24 10:10:16;;;;;;;0.10;0.10;;;10.20;73.60;;;;;;6160412;23;20033;-75
2024/02/24 10:13:02;;;;;;;0.10;0.10;;;9.80;74.20;;;;;;6160836;23;20001;-75
2024/02/24 10:15:28;;;;;;;0.10;0.10;;;9.30;75.20;;;;;;6134505;23;20009;-75
2024/02/24 10:17:56;;;;;;;0.10;0.10;;;9.00;76.40;;;;;;6160341;23;20132;-75
2024/02/24 10:20:22;;;;;;;0.10;0.10;;;8.90;77.30;;;;;;6160308;23;20012;-74
2024/02/24 10:22:47;;;;;;;0.10;0.10;;;8.80;78.10;;;;;;6134438;23;20018;-75
2024/02/24 10:25:14;;;;;;;0.10;0.10;;;8.70;78.40;;;;;;6134378;23;20085;-75
2024/02/24 10:27:44;;;;;;;0.10;0.10;;;8.70;78.70;;;;;;6159955;23;20002;-75
2024/02/24 10:30:10;;;;;;;0.10;0.10;;;8.50;79.00;;;;;;6159789;23;20342;-75
2024/02/24 10:32:37;;;;;;;0.10;0.10;;;8.30;79.50;;;;;;6155865;23;20017;-75
2024/02/24 10:35:04;;;;;;;0.10;0.10;;;8.20;80.20;;;;;;6158859;23;20012;-74
2024/02/24 10:37:36;;;;;;;0.10;0.10;;;8.10;80.40;;;;;;6160588;23;20081;-74
2024/02/24 10:40:04;;;;;;;0.17;0.17;;;8.00;80.60;;;;;;6159618;23;20432;-75
2024/02/24 10:42:30;;;;;;;0.20;0.20;;;8.10;80.60;;;;;;6160192;23;20438;-74
2024/02/24 10:44:56;;;;;;;0.20;0.20;;;8.30;80.40;;;;;;6160316;23;20140;-75
2024/02/24 10:47:22;;;;;;;0.20;0.20;;;8.70;79.70;;;;;;6160002;23;20004;-74
2024/02/24 10:49:48;;;;;;;0.10;0.10;;;8.90;78.10;;;;;;6160044;23;20032;-74
2024/02/24 10:52:19;;;;;;;0.10;0.10;;;8.90;77.30;;;;;;6158100;23;20009;-75
2024/02/24 10:54:47;;;;;;;0.20;0.20;;;8.80;77.20;;;;;;6160536;23;20017;-74
2024/02/24 10:57:15;;;;;;;0.20;0.20;;;8.80;77.20;;;;;;6159886;23;20001;-74
2024/02/24 10:59:41;;;;;;;0.10;0.10;;;9.00;76.60;;;;;;6160038;23;20060;-74
2024/02/24 11:02:10;;;;;;;0.15;0.15;;;9.00;75.90;;;;;;6158406;23;20504;-75
2024/02/24 11:04:37;;;;;;;0.20;0.20;;;9.00;76.40;;;;;;6159588;23;20005;-75
2024/02/24 11:07:06;;;;;;;0.20;0.20;;;8.90;75.90;;;;;;6160128;23;20013;-74
2024/02/24 11:09:38;;;;;;;0.20;0.20;;;9.10;76.00;;;;;;6160244;23;20013;-75
2024/02/24 11:12:10;;;;;;;0.20;0.20;;;9.30;75.80;;;;;;6160109;23;20002;-75
2024/02/24 11:14:38;;;;;;;0.20;0.20;;;9.40;75.30;;;;;;6159938;23;20002;-74
2024/02/24 11:17:04;;;;;;;0.20;0.20;;;9.30;74.40;;;;;;6159369;23;20457;-75
2024/02/24 11:19:43;;;;;;;0.10;0.10;;;9.60;74.90;;;;;;6159990;23;20015;-74
2024/02/24 11:22:17;;;;;;;0.10;0.10;;;9.80;74.40;;;;;;6159607;23;20036;-75
2024/02/24 11:24:42;;;;;;;0.20;0.20;;;9.80;74.20;;;;;;6159950;23;20008;-74
2024/02/24 11:27:11;;;;;;;0.20;0.20;;;9.80;74.00;;;;;;6159877;23;20006;-74
2024/02/24 11:29:38;;;;;;;0.20;0.20;;;9.80;74.00;;;;;;6182889;23;20009;-75
2024/02/24 11:32:12;;;;;;;0.20;0.20;;;9.80;74.30;;;;;;6158952;23;20044;-75
2024/02/24 11:34:42;;;;;;;0.10;0.10;;;9.80;74.70;;;;;;6159709;23;20006;-75
2024/02/24 11:37:08;;;;;;;0.20;0.20;;;9.80;74.70;;;;;;6159411;23;20029;-74
2024/02/24 11:39:39;;;;;;;0.10;0.10;;;9.60;74.80;;;;;;6133479;23;20041;-73
2024/02/24 11:42:06;;;;;;;0.20;0.20;;;9.70;75.00;;;;;;6159628;23;19997;-74
2024/02/24 11:44:32;;;;;;;0.20;0.20;;;9.90;75.20;;;;;;6159539;23;20001;-74
2024/02/24 11:46:58;;;;;;;0.20;0.20;;;10.10;75.00;;;;;;6159665;23;20055;-74
2024/02/24 11:49:23;;;;;;;0.20;0.20;;;10.20;74.30;;;;;;6133411;23;20009;-74
2024/02/24 11:51:50;;;;;;;0.20;0.20;;;10.40;74.20;;;;;;6159808;23;20001;-73
2024/02/24 11:54:16;;;;;;;0.20;0.20;;;10.40;73.40;;;;;;6159116;23;19998;-75
2024/02/24 11:56:43;;;;;;;0.17;0.17;;;10.30;72.80;;;;;;6159475;23;20032;-74
2024/02/24 11:59:09;;;;;;;0.10;0.10;;;10.30;72.40;;;;;;6158696;23;19997;-74
2024/02/24 12:01:37;;;;;;;0.20;0.20;;;10.30;72.60;;;;;;6133293;23;20005;-74
2024/02/24 12:04:03;;;;;;;0.20;0.20;;;10.50;72.40;;;;;;6159844;23;19998;-74
2024/02/24 12:06:30;;;;;;;0.20;0.20;;;10.40;71.80;;;;;;6132799;23;20338;-74
2024/02/24 12:08:58;;;;;;;0.20;0.20;;;10.30;71.70;;;;;;6159495;23;20416;-74
2024/02/24 12:11:27;;;;;;;0.20;0.20;;;10.20;72.00;;;;;;6133488;23;20013;-75
2024/02/24 12:13:53;;;;;;;0.20;0.20;;;10.20;72.20;;;;;;6159096;23;20013;-74
2024/02/24 12:16:19;;;;;;;0.20;0.20;;;10.50;73.10;;;;;;6159519;23;20001;-74
2024/02/24 12:18:45;;;;;;;0.20;0.20;;;10.60;72.50;;;;;;6133360;23;20017;-75
2024/02/24 12:21:12;;;;;;;0.10;0.10;;;10.70;72.30;;;;;;6158754;23;20338;-75
2024/02/24 12:23:38;;;;;;;0.20;0.20;;;10.70;72.20;;;;;;6159621;23;20438;-75
2024/02/24 12:26:14;;;;;;;0.10;0.10;;;10.70;72.70;;;;;;6158878;23;20330;-75
2024/02/24 12:28:47;;;;;;;0.17;0.17;;;10.60;72.20;;;;;;6159365;23;20024;-75
2024/02/24 12:31:14;;;;;;;0.10;0.10;;;10.50;72.60;;;;;;6138086;23;20021;-75
2024/02/24 12:33:42;;;;;;;0.20;0.20;;;10.40;72.10;;;;;;6159367;23;20005;-75
2024/02/24 12:36:10;;;;;;;0.20;0.20;;;10.30;72.50;;;;;;6159337;23;20319;-74
2024/02/24 12:38:37;;;;;;;0.10;0.10;;;10.50;71.90;;;;;;6158950;23;20013;-75
2024/02/24 12:41:07;;;;;;;0.20;0.20;;;10.50;72.10;;;;;;6157463;23;20040;-74
2024/02/24 12:43:34;;;;;;;0.20;0.20;;;10.80;71.90;;;;;;6159430;23;20117;-75
2024/02/24 12:46:00;;;;;;;0.20;0.20;;;11.20;70.30;;;;;;6158582;23;20008;-75
2024/02/24 12:48:26;;;;;;;0.10;0.10;;;11.20;70.80;;;;;;6159358;23;20089;-74
2024/02/24 12:50:51;;;;;;;0.10;0.10;;;11.20;70.70;;;;;;6159243;23;19997;-75
2024/02/24 12:53:17;;;;;;;0.20;0.20;;;11.10;71.00;;;;;;6159282;23;20009;-75
2024/02/24 12:55:43;;;;;;;0.10;0.10;;;11.10;70.50;;;;;;6158929;23;20001;-75
2024/02/24 12:58:08;;;;;;;0.10;0.10;;;10.90;70.70;;;;;;6156863;23;20002;-74
2024/02/24 13:00:34;;;;;;;0.10;0.10;;;10.90;70.50;;;;;;6159582;23;20319;-74
2024/02/24 13:03:00;;;;;;;0.10;0.10;;;10.90;70.90;;;;;;6157642;23;20002;-74
2024/02/24 13:05:25;;;;;;;0.20;0.20;;;10.90;70.60;;;;;;6157533;23;20440;-75
2024/02/24 13:07:51;;;;;;;0.10;0.10;;;11.00;70.70;;;;;;6158508;23;20005;-75
2024/02/24 13:10:17;;;;;;;0.20;0.20;;;11.00;70.80;;;;;;6160852;23;20089;-75
2024/02/24 13:12:43;;;;;;;0.20;0.20;;;11.20;71.00;;;;;;6160685;23;20012;-75
2024/02/24 13:15:09;;;;;;;0.10;0.10;;;11.50;70.30;;;;;;6161135;23;20021;-75
2024/02/24 13:17:35;;;;;;;0.10;0.10;;;11.50;69.90;;;;;;6159593;23;20449;-74
2024/02/24 13:20:01;;;;;;;0.10;0.10;;;11.30;70.20;;;;;;6160931;23;20005;-74
2024/02/24 13:22:27;;;;;;;0.15;0.15;;;11.10;70.60;;;;;;6161038;23;20065;-75
2024/02/24 13:24:53;;;;;;;0.10;0.10;;;11.00;71.20;;;;;;6184204;23;20516;-75
2024/02/24 13:27:19;;;;;;;0.10;0.10;;;11.10;71.20;;;;;;6159847;23;20465;-74
2024/02/24 13:29:44;;;;;;;0.10;0.10;;;11.00;71.40;;;;;;6160649;23;20028;-74
2024/02/24 13:32:10;;;;;;;0.10;0.10;;;11.00;70.90;;;;;;6159010;23;20053;-75
2024/02/24 13:34:36;;;;;;;0.10;0.10;;;10.80;72.90;;;;;;6160335;23;20071;-75
2024/02/24 13:37:02;;;;;;;0.10;0.10;;;10.70;74.10;;;;;;6161205;23;20002;-74
2024/02/24 13:39:28;;;;;;;0.10;0.10;;;10.60;74.80;;;;;;6159279;23;20037;-75
2024/02/24 13:41:53;;;;;;;0.10;0.10;;;10.60;74.90;;;;;;6159551;23;20001;-74
2024/02/24 13:44:19;;;;;;;0.10;0.10;;;10.80;74.80;;;;;;6160395;23;20033;-74
2024/02/24 13:46:48;;;;;;;0.10;0.10;;;10.70;73.20;;;;;;6160694;23;20022;-74
2024/02/24 13:49:14;;;;;;;0.10;0.10;;;10.50;73.80;;;;;;6159357;23;20445;-74
2024/02/24 13:51:39;;;;;;;0.10;0.10;;;10.20;75.20;;;;;;6160584;23;20006;-74
2024/02/24 13:54:05;;;;;;;0.10;0.10;;;9.90;77.30;;;;;;6158799;23;20015;-75
2024/02/24 13:56:31;;;;;;;0.10;0.10;;;9.70;77.80;;;;;;6161003;23;20002;-75
2024/02/24 13:59:00;;;;;;;0.10;0.10;;;9.70;78.10;;;;;;6159027;23;20341;-74
2024/02/24 14:01:25;;;;;;;0.10;0.10;;;9.70;78.80;;;;;;6160573;23;20002;-74
2024/02/24 14:03:51;;;;;;;0.10;0.10;;;9.80;79.00;;;;;;6160349;23;20002;-75
2024/02/24 14:06:17;;;;;;;0.10;0.10;;;10.00;78.60;;;;;;6160306;23;19997;-74
2024/02/24 14:08:43;;;;;;;0.10;0.10;;;10.10;79.10;;;;;;6160475;23;20002;-74
2024/02/24 14:11:08;;;;;;;0.10;0.10;;;10.40;78.10;;;;;;6159008;23;20033;-74
2024/02/24 14:13:34;;;;;;;0.20;0.20;;;10.60;78.40;;;;;;6160303;23;20422;-74
2024/02/24 14:16:03;;;;;;;0.10;0.10;;;10.70;77.60;;;;;;6160965;23;20005;-75
2024/02/24 14:18:29;;;;;;;0.10;0.10;;;10.70;77.80;;;;;;6160333;23;20096;-74
2024/02/24 14:20:54;;;;;;;0.10;0.10;;;10.60;77.60;;;;;;6160399;23;20002;-74
2024/02/24 14:23:20;;;;;;;0.10;0.10;;;10.50;77.10;;;;;;6158930;23;20005;-75
2024/02/24 14:25:46;;;;;;;0.10;0.10;;;10.80;76.80;;;;;;6160823;23;19993;-74
2024/02/24 14:28:12;;;;;;;0.10;0.10;;;10.90;76.90;;;;;;6158251;23;20002;-75
2024/02/24 14:30:39;;;;;;;0.10;0.10;;;10.80;76.60;;;;;;6160352;23;20430;-75
2024/02/24 14:33:06;;;;;;;0.10;0.10;;;10.80;76.70;;;;;;6159977;23;20088;-75
2024/02/24 14:35:31;;;;;;;0.10;0.10;;;10.90;76.50;;;;;;6160359;23;20005;-76
2024/02/24 14:37:57;;;;;;;0.10;0.10;;;11.10;76.20;;;;;;6160226;23;20504;-75
2024/02/24 14:40:24;;;;;;;0.10;0.10;;;11.20;76.20;;;;;;6159990;23;20012;-75
2024/02/24 14:42:49;;;;;;;0.13;0.13;;;11.30;75.50;;;;;;6160528;23;20036;-75
2024/02/24 14:45:15;;;;;;;0.10;0.10;;;11.40;75.10;;;;;;6160204;23;20052;-76
2024/02/24 14:47:41;;;;;;;0.10;0.10;;;11.50;75.10;;;;;;6160196;23;20012;-75
2024/02/24 14:50:07;;;;;;;0.10;0.10;;;11.50;74.50;;;;;;6159782;23;20057;-76
2024/02/24 14:52:33;;;;;;;0.10;0.10;;;11.50;74.00;;;;;;6134137;23;20012;-75
2024/02/24 14:54:58;;;;;;;0.10;0.10;;;11.50;74.00;;;;;;6159929;23;20010;-75
2024/02/24 14:57:24;;;;;;;0.10;0.10;;;11.30;73.00;;;;;;6160291;23;20005;-75
2024/02/24 14:59:50;;;;;;;0.10;0.10;;;11.30;72.50;;;;;;6159446;23;20025;-75
2024/02/24 15:02:16;;;;;;;0.10;0.10;;;11.40;71.60;;;;;;6160057;23;20004;-76
2024/02/24 15:04:42;;;;;;;0.10;0.10;;;11.60;71.40;;;;;;6160394;23;20002;-75
2024/02/24 15:07:07;;;;;;;0.20;0.20;;;11.80;71.10;;;;;;6159820;23;20005;-75
2024/02/24 15:09:33;;;;;;;0.10;0.10;;;12.20;70.70;;;;;;6159718;23;20497;-75
2024/02/24 15:11:59;;;;;;;0.10;0.10;;;12.20;70.10;;;;;;6160252;23;20002;-75
2024/02/24 15:14:24;;;;;;;0.10;0.10;;;12.00;70.40;;;;;;6159594;23;20426;-75
2024/02/24 15:16:51;;;;;;;0.10;0.10;;;11.60;70.10;;;;;;6157645;23;19998;-75
2024/02/24 15:19:18;;;;;;;0.10;0.10;;;11.30;70.80;;;;;;6159888;23;19998;-75
2024/02/24 15:21:45;;;;;;;0.10;0.10;;;11.10;71.80;;;;;;6159788;23;20002;-75
2024/02/24 15:24:11;;;;;;;0.10;0.10;;;10.90;73.10;;;;;;6160038;23;20001;-75
2024/02/24 15:26:37;;;;;;;0.10;0.10;;;10.80;74.20;;;;;;6133822;23;20013;-75
2024/02/24 15:29:04;;;;;;;0.10;0.10;;;10.70;75.30;;;;;;6159532;23;20005;-75
2024/02/24 15:31:30;;;;;;;0.10;0.10;;;10.60;75.80;;;;;;6159404;23;20018;-75
2024/02/24 15:33:56;;;;;;;0.10;0.10;;;10.70;76.20;;;;;;6159571;23;20001;-75
2024/02/24 15:36:23;;;;;;;0.10;0.10;;;10.50;76.20;;;;;;6159364;23;20052;-75
2024/02/24 15:38:49;;;;;;;0.10;0.10;;;10.50;75.90;;;;;;6159933;23;20008;-75
2024/02/24 15:41:19;;;;;;;0.10;0.10;;;10.30;75.50;;;;;;6159660;23;20057;-75
2024/02/24 15:43:45;;;;;;;0.10;0.10;;;10.30;75.50;;;;;;6133541;23;20537;-75
2024/02/24 15:46:10;;;;;;;0.10;0.10;;;10.20;75.50;;;;;;6159429;23;20005;-75
2024/02/24 15:48:36;;;;;;;0.10;0.10;;;10.20;75.20;;;;;;6159545;23;20008;-75
2024/02/24 15:51:04;;;;;;;0.10;0.10;;;10.10;75.60;;;;;;6133597;23;20006;-75
2024/02/24 15:53:29;;;;;;;0.10;0.10;;;10.00;75.90;;;;;;6159728;23;20009;-75
2024/02/24 15:55:57;;;;;;;0.20;0.20;;;10.00;76.10;;;;;;6159489;23;20059;-75
2024/02/24 15:58:23;;;;;;;0.10;0.10;;;9.90;76.30;;;;;;6159585;23;20001;-75
2024/02/24 16:00:49;;;;;;;0.10;0.10;;;9.80;76.80;;;;;;6159237;23;20442;-75
2024/02/24 16:03:18;;;;;;;0.10;0.10;;;9.70;77.10;;;;;;6159274;23;20005;-75
2024/02/24 16:05:44;;;;;;;0.10;0.10;;;9.70;77.20;;;;;;6159127;23;19998;-75
2024/02/24 16:08:10;;;;;;;0.10;0.10;;;9.70;77.40;;;;;;6159846;23;20433;-75
2024/02/24 16:10:35;;;;;;;0.10;0.10;;;9.60;77.70;;;;;;6158986;23;20084;-75
2024/02/24 16:13:03;;;;;;;0.10;0.10;;;9.50;78.10;;;;;;6133397;23;20009;-75
2024/02/24 16:15:29;;;;;;;0.10;0.10;;;9.50;78.40;;;;;;6159385;23;20131;-75
2024/02/24 16:17:54;;;;;;;0.10;0.10;;;9.60;78.50;;;;;;6158899;23;20005;-75
2024/02/24 16:20:20;;;;;;;0.10;0.10;;;9.70;78.10;;;;;;6159526;23;20001;-75
2024/02/24 16:22:45;;;;;;;0.10;0.10;;;9.70;77.90;;;;;;6159625;23;20025;-75
2024/02/24 16:25:18;;;;;;;0.10;0.10;;;9.80;77.50;;;;;;6132571;23;20006;-75
2024/02/24 16:27:44;;;;;;;0.10;0.10;;;9.80;77.30;;;;;;6133673;23;19997;-75
2024/02/24 16:30:10;;;;;;;0.10;0.10;;;9.80;77.30;;;;;;6159225;23;20080;-75
2024/02/24 16:32:36;;;;;;;0.10;0.10;;;9.80;77.20;;;;;;6159034;23;20025;-75
2024/02/24 16:35:01;;;;;;;0.10;0.10;;;9.70;77.30;;;;;;6159351;23;20008;-75
2024/02/24 16:37:27;;;;;;;0.10;0.10;;;9.70;77.20;;;;;;6133168;23;20414;-75
2024/02/24 16:39:56;;;;;;;0.10;0.10;;;9.60;77.10;;;;;;6159472;23;20341;-75
2024/02/24 16:42:22;;;;;;;0.10;0.10;;;9.70;77.60;;;;;;6159007;23;20073;-75
2024/02/24 16:44:48;;;;;;;0.10;0.10;;;9.70;77.80;;;;;;6158451;23;20012;-75
2024/02/24 16:47:14;;;;;;;0.10;0.10;;;9.80;77.90;;;;;;6133279;23;20002;-75
2024/02/24 16:49:40;;;;;;;0.10;0.10;;;9.80;77.80;;;;;;6132526;23;20062;-75
2024/02/24 16:52:05;;;;;;;0.10;0.10;;;9.80;77.80;;;;;;6159548;23;20339;-75
2024/02/24 16:54:31;;;;;;;0.10;0.10;;;9.80;77.70;;;;;;6159036;23;20048;-75
2024/02/24 16:56:57;;;;;;;0.10;0.10;;;9.70;77.70;;;;;;6159119;23;20008;-75
2024/02/24 16:59:22;;;;;;;0.10;0.10;;;9.60;77.90;;;;;;6132624;23;20009;-75
2024/02/24 17:01:48;;;;;;;0.10;0.10;;;9.50;78.10;;;;;;6159110;23;20006;-75
2024/02/24 17:04:14;;;;;;;0.10;0.10;;;9.50;77.70;;;;;;6132550;23;20002;-75
2024/02/24 17:06:39;;;;;;;0.10;0.10;;;9.30;77.80;;;;;;6159449;23;20001;-75
2024/02/24 17:09:05;;;;;;;0.10;0.10;;;9.20;77.80;;;;;;6159051;23;20002;-75
2024/02/24 17:11:31;;;;;;;0.10;0.10;;;9.20;78.20;;;;;;6159064;23;20071;-75
2024/02/24 17:13:57;;;;;;;0.10;0.10;;;9.10;78.30;;;;;;6158787;23;20010;-75
2024/02/24 17:16:22;;;;;;;0.10;0.10;;;9.00;78.60;;;;;;6159391;23;20012;-75
2024/02/24 17:18:48;;;;;;;0.10;0.10;;;8.90;78.80;;;;;;6158796;23;20060;-75
2024/02/24 17:21:14;;;;;;;0.10;0.10;;;8.90;79.00;;;;;;6158636;23;20005;-75
2024/02/24 17:23:41;;;;;;;0.10;0.10;;;8.80;79.10;;;;;;6159270;23;20002;-75
2024/02/24 17:26:08;;;;;;;0.10;0.10;;;8.80;79.50;;;;;;6158844;23;20005;-75
2024/02/24 17:28:33;;;;;;;0.10;0.10;;;8.70;79.60;;;;;;6159319;23;19997;-75
2024/02/24 17:31:01;;;;;;;0.10;0.10;;;8.70;80.10;;;;;;6158453;23;20016;-75
2024/02/24 17:33:27;;;;;;;0.10;0.10;;;8.70;80.30;;;;;;6159299;23;20009;-75
2024/02/24 17:35:52;;;;;;;0.10;0.10;;;8.60;80.30;;;;;;6158906;23;20028;-75
2024/02/24 17:38:21;;;;;;;0.10;0.10;;;8.70;80.20;;;;;;6159049;23;20001;-75
2024/02/24 17:40:50;;;;;;;0.10;0.10;;;8.60;80.40;;;;;;6158973;23;20080;-75
2024/02/24 17:43:15;;;;;;;0.10;0.10;;;8.60;80.50;;;;;;6159115;23;20005;-75
2024/02/24 17:45:41;;;;;;;0.10;0.10;;;8.60;80.40;;;;;;6158910;23;20072;-75
2024/02/24 17:48:07;;;;;;;0.10;0.10;;;8.50;80.40;;;;;;6158973;23;19997;-75
2024/02/24 17:50:33;;;;;;;0.10;0.10;;;8.40;80.50;;;;;;6159010;23;20709;-75
2024/02/24 17:52:59;;;;;;;0.10;0.10;;;8.40;80.40;;;;;;6158822;23;20056;-75
2024/02/24 17:55:25;;;;;;;0.10;0.10;;;8.30;80.60;;;;;;6159256;23;20012;-75
2024/02/24 17:57:51;;;;;;;0.10;0.10;;;8.30;80.70;;;;;;6134529;23;20029;-75
2024/02/24 18:00:17;;;;;;;0.10;0.10;;;8.20;80.70;;;;;;6160284;23;20009;-75
2024/02/24 18:02:43;;;;;;;0.10;0.10;;;8.20;81.00;;;;;;6161304;23;19998;-75
2024/02/24 18:05:09;;;;;;;0.10;0.10;;;8.20;81.00;;;;;;6160097;23;20016;-75
2024/02/24 18:07:37;;;;;;;0.10;0.10;;;8.20;80.80;;;;;;6134327;23;20001;-75
2024/02/24 18:10:03;;;;;;;0.10;0.10;;;8.10;80.80;;;;;;6160415;23;20009;-75
2024/02/24 18:12:33;;;;;;;0.10;0.10;;;8.00;80.80;;;;;;6160711;23;20025;-75
2024/02/24 18:14:59;;;;;;;0.10;0.10;;;8.00;81.00;;;;;;6160536;23;20464;-75
2024/02/24 18:17:25;;;;;;;0.10;0.10;;;7.90;80.70;;;;;;6160804;23;20315;-75